Terminal Aerodrome Forecast
Issued by NWS

Current Version | Previous Version | Text Only | Print | Product List | Glossary On
Versions: 1 2 3 4 5 6 7 8 9 10 11 12 13 14 15
000
FTUS45 KTFX 252340
TAFGTF
TAF
KGTF 252340Z 2600/2624 20009KT P6SM FEW060
     FM260200 18009KT P6SM VCTS SCT050CB BKN080
     FM260400 21005KT P6SM FEW050 FEW080
     FM262200 21010KT P6SM VCSH SCT050 BKN080=

USA.gov is the U.S. government's official web portal to all federal, state and local government web resources and services.